»·PEaware :: N143VT KOTH-KOLM

N143VT :: KOTH-KOLM

FLIGHT INFORMATION

Flight Status: Arrived
Operator: Privately registered:
United States
More flights under this callsign
Pilot: Anonymous 16492 (16492)
Aircraft: Unknown
(EPIC)
More flights by this aircraft type
Origin: KOTH North Bend Mun
United States
Destination: KOLM Olympia
United States
More flights between these airports :: More routes between these airports
Route: +OTH6 OTH V287 UBG V165 CETRA
File this flight plan on PilotEdge
Remarks:
Altitude:
(Current/Filed)
123,000ft
Speed:
(Current/Filed)
330kts
Departed: 26-Jun-18 05:05 PM
Arrived: 26-Jun-18 06:03 PM
Distance/Time
Traveled:
221nm/0:58
Distance/Time
To Go:
Arrived

Flight Plot

Page will automatically refresh every two minutes.

Flight plan parsing failed; only flown route is shown


Map Options




Map Legend


Flown Route
Filed Route
Departure Airport
Arrival Airport
Navaid (VOR, NDB)
Fix

Horizontal Profiles

Position Reports

Time Latitude Longitude Heading Altitude Ground
Speed
26-Jun-18 16:45 43.417384 -124.246533 330 21ft 0kts
26-Jun-18 16:46 43.417384 -124.246533 330 21ft 0kts
26-Jun-18 16:47 43.417384 -124.246533 330 21ft 0kts
26-Jun-18 16:48 43.417384 -124.246533 330 21ft 0kts
26-Jun-18 16:49 43.417384 -124.246533 330 21ft 0kts
26-Jun-18 16:50 43.417384 -124.246533 330 21ft 0kts
26-Jun-18 16:51 43.417384 -124.246533 330 21ft 0kts
26-Jun-18 16:52 43.417384 -124.246533 330 21ft 0kts
26-Jun-18 16:53 43.417384 -124.246533 330 21ft 0kts
26-Jun-18 16:54 43.417384 -124.246533 330 21ft 0kts
26-Jun-18 16:55 43.417384 -124.246533 330 21ft 0kts
26-Jun-18 16:56 43.417384 -124.246533 331 21ft 0kts
26-Jun-18 16:57 43.417385 -124.246533 330 21ft 0kts
26-Jun-18 16:58 43.417653 -124.246696 24 21ft 0kts
26-Jun-18 16:59 43.417763 -124.246019 141 21ft 13kts
26-Jun-18 17:00 43.411510 -124.240979 151 21ft 24kts
26-Jun-18 17:01 43.408937 -124.238712 80 21ft 0kts
26-Jun-18 17:02 43.408937 -124.238712 80 21ft 0kts
26-Jun-18 17:03 43.408937 -124.238712 80 21ft 0kts
26-Jun-18 17:04 43.409594 -124.238048 327 21ft 0kts
26-Jun-18 17:05 43.422394 -124.255788 271 633ft 144kts
26-Jun-18 17:06 43.415816 -124.306105 325 2971ft 130kts
26-Jun-18 17:07 43.431056 -124.269336 96 4973ft 177kts
26-Jun-18 17:08 43.420887 -124.202087 98 6869ft 182kts
26-Jun-18 17:09 43.445519 -124.154902 21 8534ft 171kts
26-Jun-18 17:10 43.489107 -124.126271 19 10203ft 178kts
26-Jun-18 17:11 43.535005 -124.098126 20 11750ft 184kts
26-Jun-18 17:12 43.582351 -124.069617 19 13189ft 189kts
26-Jun-18 17:13 43.630980 -124.040505 19 14521ft 194kts
26-Jun-18 17:14 43.680577 -124.010830 18 15756ft 198kts
26-Jun-18 17:15 43.731461 -123.980349 18 16907ft 203kts
26-Jun-18 17:16 43.783509 -123.949119 18 17906ft 209kts
26-Jun-18 17:17 43.836419 -123.917303 17 18936ft 210kts
26-Jun-18 17:18 43.890210 -123.884901 17 19869ft 214kts
26-Jun-18 17:19 43.945146 -123.851743 17 20746ft 217kts
26-Jun-18 17:20 44.000892 -123.818027 16 21562ft 221kts
26-Jun-18 17:21 44.057353 -123.783808 16 22314ft 224kts
26-Jun-18 17:22 44.114715 -123.748981 16 22936ft 231kts
26-Jun-18 17:23 44.177012 -123.711088 17 22938ft 258kts
26-Jun-18 17:24 44.242206 -123.671279 17 22928ft 273kts
26-Jun-18 17:25 44.312372 -123.628340 17 22919ft 280kts
26-Jun-18 17:26 44.384221 -123.584269 18 22910ft 285kts
26-Jun-18 17:27 44.453111 -123.541910 18 22910ft 287kts
26-Jun-18 17:28 44.526146 -123.496885 18 22911ft 288kts
26-Jun-18 17:29 44.599085 -123.451796 18 22911ft 288kts
26-Jun-18 17:30 44.671844 -123.406697 18 22911ft 289kts
26-Jun-18 17:31 44.744998 -123.361226 18 22912ft 289kts
26-Jun-18 17:32 44.818279 -123.315553 18 22905ft 289kts
26-Jun-18 17:33 44.893504 -123.268563 19 22905ft 306kts
26-Jun-18 17:34 44.972411 -123.219076 19 22903ft 315kts
26-Jun-18 17:35 45.052390 -123.168744 18 22904ft 318kts
26-Jun-18 17:36 45.132497 -123.118213 17 22908ft 317kts
26-Jun-18 17:37 45.212027 -123.067909 17 22911ft 316kts
26-Jun-18 17:38 45.292053 -123.017120 17 22915ft 316kts
26-Jun-18 17:39 45.373439 -122.984395 352 22920ft 301kts
26-Jun-18 17:40 45.456035 -122.991419 348 22917ft 300kts
26-Jun-18 17:41 45.538255 -123.001283 348 22917ft 300kts
26-Jun-18 17:42 45.620486 -123.011530 348 22917ft 299kts
26-Jun-18 17:43 45.702711 -123.021868 348 22622ft 309kts
26-Jun-18 17:44 45.792406 -123.033173 349 21138ft 338kts
26-Jun-18 17:45 45.885853 -123.044947 350 19635ft 338kts
26-Jun-18 17:46 45.978821 -123.056724 351 18134ft 337kts
26-Jun-18 17:47 46.070518 -123.068360 351 16625ft 320kts
26-Jun-18 17:48 46.150727 -123.078590 352 15213ft 302kts
26-Jun-18 17:49 46.232572 -123.089066 352 13720ft 294kts
26-Jun-18 17:50 46.312838 -123.099365 353 12227ft 290kts
26-Jun-18 17:51 46.391212 -123.109437 353 10755ft 288kts
26-Jun-18 17:52 46.468427 -123.095928 12 9274ft 287kts
26-Jun-18 17:53 46.543605 -123.067903 13 7806ft 284kts
26-Jun-18 17:54 46.618227 -123.039246 14 6328ft 278kts
26-Jun-18 17:55 46.685275 -123.013313 14 5977ft 222kts
26-Jun-18 17:56 46.738650 -122.992201 15 5998ft 160kts
26-Jun-18 17:57 46.779170 -122.974895 15 4012ft 148kts
26-Jun-18 17:58 46.817312 -122.958529 16 2007ft 140kts
26-Jun-18 17:59 46.849232 -122.944894 15 1699ft 127kts
26-Jun-18 18:00 46.882912 -122.930420 13 1614ft 135kts
26-Jun-18 18:01 46.922381 -122.918286 8 768ft 109kts
26-Jun-18 18:02 46.954747 -122.908648 10 374ft 108kts
26-Jun-18 18:03 46.975017 -122.902884 14 212ft 14kts
26-Jun-18 18:04 46.975652 -122.899725 139 212ft 8kts
26-Jun-18 18:05 46.973873 -122.897021 142 212ft 0kts

Navigation Log

Ident Type
Flight plan parsing failed, navigation log unavailable